York, South Carolina
Current Conditions -  °F | °C
As of 5:54 PM on Friday 31 Oct 2014 (Local Time) from KUZA Reporting Station
Overcast Overcast  
Wind Chill: 60°   Ceiling: 12000
Heat Index: 60°   Visibility: 10mi
Dew Point: 46°   Wind: 3mph
Humidity: 60%   Direction: 50°NE
Pressure: 29.79"   Gusts: NA
Location:  34.99°N, 81.24°W
Report Text: KUZA 312154Z AUTO 05003KT 10SM OVC120 16/08 A2979 RMK AO2 SLP087 T01560078
Loading
Personal Weather Stations






























Interactive Weather Map
Tropical Storm Tracking
New forecast layout! Learn more

10-Day Weather Forecast

Advertisements
Track Severe Weather on mobile